sensor_id;sensor_type;location;lat;lon;timestamp;pressure;altitude;pressure_sealevel;temperature;humidity
70343;BME280;57767;42.068;24.752;2023-09-18T00:00:28;99373.69;;;19.21;75.17
70343;BME280;57767;42.068;24.752;2023-09-18T00:01:30;99370.78;;;19.23;74.67
70343;BME280;57767;42.068;24.752;2023-09-18T00:02:32;99371.84;;;19.22;74.94
70343;BME280;57767;42.068;24.752;2023-09-18T00:03:34;99355.34;;;19.08;74.97
70343;BME280;57767;42.068;24.752;2023-09-18T00:04:35;99371.28;;;19.20;75.08
70343;BME280;57767;42.068;24.752;2023-09-18T00:05:37;99372.91;;;19.21;74.66
70343;BME280;57767;42.068;24.752;2023-09-18T00:06:39;99371.34;;;19.25;75.19
70343;BME280;57767;42.068;24.752;2023-09-18T00:07:42;99368.38;;;19.26;75.00
70343;BME280;57767;42.068;24.752;2023-09-18T00:08:46;99369.44;;;19.25;75.27
70343;BME280;57767;42.068;24.752;2023-09-18T00:09:49;99363.56;;;19.23;75.22
70343;BME280;57767;42.068;24.752;2023-09-18T00:10:54;99357.97;;;19.25;75.19
70343;BME280;57767;42.068;24.752;2023-09-18T00:11:56;99357.97;;;19.25;74.89
70343;BME280;57767;42.068;24.752;2023-09-18T00:12:58;99360.34;;;19.26;74.92
70343;BME280;57767;42.068;24.752;2023-09-18T00:14:00;99358.44;;;19.22;74.90
70343;BME280;57767;42.068;24.752;2023-09-18T00:15:02;99357.63;;;19.21;75.16
70343;BME280;57767;42.068;24.752;2023-09-18T00:16:04;99356.06;;;19.25;74.98
70343;BME280;57767;42.068;24.752;2023-09-18T00:17:05;99357.56;;;19.16;75.46
70343;BME280;57767;42.068;24.752;2023-09-18T00:18:08;99361.38;;;19.20;75.13
70343;BME280;57767;42.068;24.752;2023-09-18T00:19:10;99357.31;;;19.18;75.32
70343;BME280;57767;42.068;24.752;2023-09-18T00:20:12;99353.03;;;19.17;75.27
70343;BME280;57767;42.068;24.752;2023-09-18T00:21:15;99355.78;;;19.22;75.12
70343;BME280;57767;42.068;24.752;2023-09-18T00:22:18;99363.81;;;19.22;75.20
70343;BME280;57767;42.068;24.752;2023-09-18T00:23:20;99353.66;;;19.24;75.20
70343;BME280;57767;42.068;24.752;2023-09-18T00:24:21;99347.44;;;19.18;74.92
70343;BME280;57767;42.068;24.752;2023-09-18T00:25:24;99358.44;;;19.22;75.01
70343;BME280;57767;42.068;24.752;2023-09-18T00:26:25;99353.59;;;19.19;75.09
70343;BME280;57767;42.068;24.752;2023-09-18T00:27:28;99362.19;;;19.21;74.86
70343;BME280;57767;42.068;24.752;2023-09-18T00:28:30;99356.59;;;19.22;74.97
70343;BME280;57767;42.068;24.752;2023-09-18T00:29:32;99361.69;;;19.24;74.73
70343;BME280;57767;42.068;24.752;2023-09-18T00:30:33;99354.19;;;19.26;74.98
70343;BME280;57767;42.068;24.752;2023-09-18T00:31:35;99348.56;;;19.22;75.12
70343;BME280;57767;42.068;24.752;2023-09-18T00:32:37;99356.34;;;19.24;74.94
70343;BME280;57767;42.068;24.752;2023-09-18T00:33:39;99354.72;;;19.23;75.13
70343;BME280;57767;42.068;24.752;2023-09-18T00:34:41;99358.22;;;19.23;74.94
70343;BME280;57767;42.068;24.752;2023-09-18T00:35:47;99356.34;;;19.24;75.04
70343;BME280;57767;42.068;24.752;2023-09-18T00:36:49;99350.34;;;19.17;74.92
70343;BME280;57767;42.068;24.752;2023-09-18T00:37:50;99351.97;;;19.18;75.03
70343;BME280;57767;42.068;24.752;2023-09-18T00:38:52;99356.19;;;19.14;75.27
70343;BME280;57767;42.068;24.752;2023-09-18T00:39:54;99348.13;;;19.09;75.18
70343;BME280;57767;42.068;24.752;2023-09-18T00:40:56;99358.38;;;19.17;75.44
70343;BME280;57767;42.068;24.752;2023-09-18T00:41:58;99351.66;;;19.14;75.15
70343;BME280;57767;42.068;24.752;2023-09-18T00:43:00;99351.63;;;19.09;75.53
70343;BME280;57767;42.068;24.752;2023-09-18T00:44:02;99355.91;;;19.10;75.44
70343;BME280;57767;42.068;24.752;2023-09-18T00:45:05;99358.84;;;19.09;75.72
70343;BME280;57767;42.068;24.752;2023-09-18T00:46:08;99358.47;;;19.00;76.08
70343;BME280;57767;42.068;24.752;2023-09-18T00:47:10;99353.66;;;19.02;76.35
70343;BME280;57767;42.068;24.752;2023-09-18T00:48:15;99355.53;;;19.02;76.08
70343;BME280;57767;42.068;24.752;2023-09-18T00:49:18;99358.84;;;19.09;75.93
70343;BME280;57767;42.068;24.752;2023-09-18T00:50:20;99356.47;;;19.12;75.81
70343;BME280;57767;42.068;24.752;2023-09-18T00:51:23;99361.06;;;19.17;75.40
70343;BME280;57767;42.068;24.752;2023-09-18T00:52:26;99357.81;;;19.15;75.34
70343;BME280;57767;42.068;24.752;2023-09-18T00:53:29;99354.09;;;19.16;75.33
70343;BME280;57767;42.068;24.752;2023-09-18T00:54:31;99357.31;;;19.18;75.78
70343;BME280;57767;42.068;24.752;2023-09-18T00:55:33;99348.00;;;19.20;75.53
70343;BME280;57767;42.068;24.752;2023-09-18T00:56:35;99355.47;;;19.18;75.05
70343;BME280;57767;42.068;24.752;2023-09-18T00:57:37;99352.03;;;19.23;75.32
70343;BME280;57767;42.068;24.752;2023-09-18T00:58:40;99353.38;;;19.25;75.25
70343;BME280;57767;42.068;24.752;2023-09-18T00:59:42;99348.25;;;19.19;74.96
70343;BME280;57767;42.068;24.752;2023-09-18T01:00:44;99356.44;;;19.34;74.76
70343;BME280;57767;42.068;24.752;2023-09-18T01:01:48;99359.69;;;19.36;74.77
70343;BME280;57767;42.068;24.752;2023-09-18T01:02:51;99358.06;;;19.35;74.57
70343;BME280;57767;42.068;24.752;2023-09-18T01:03:53;99348.66;;;19.32;74.87
70343;BME280;57767;42.068;24.752;2023-09-18T01:04:55;99354.34;;;19.41;74.21
70343;BME280;57767;42.068;24.752;2023-09-18T01:05:57;99350.59;;;19.37;74.31
70343;BME280;57767;42.068;24.752;2023-09-18T01:07:01;99354.41;;;19.46;74.34
70343;BME280;57767;42.068;24.752;2023-09-18T01:08:06;99354.91;;;19.43;73.93
70343;BME280;57767;42.068;24.752;2023-09-18T01:09:08;99353.53;;;19.41;74.35
70343;BME280;57767;42.068;24.752;2023-09-18T01:10:14;99358.16;;;19.45;74.26
70343;BME280;57767;42.068;24.752;2023-09-18T01:11:43;99362.69;;;19.45;73.86
70343;BME280;57767;42.068;24.752;2023-09-18T01:12:55;99353.84;;;19.44;74.04
70343;BME280;57767;42.068;24.752;2023-09-18T01:16:25;99359.97;;;19.40;74.19
70343;BME280;57767;42.068;24.752;2023-09-18T01:17:35;99363.75;;;19.44;74.43
70343;BME280;57767;42.068;24.752;2023-09-18T01:18:49;99358.63;;;19.37;74.24
70343;BME280;57767;42.068;24.752;2023-09-18T01:19:52;99359.16;;;19.39;74.58
70343;BME280;57767;42.068;24.752;2023-09-18T01:20:53;99354.81;;;19.33;74.79
70343;BME280;57767;42.068;24.752;2023-09-18T01:21:55;99358.63;;;19.37;74.26
70343;BME280;57767;42.068;24.752;2023-09-18T01:22:57;99355.94;;;19.37;74.48
70343;BME280;57767;42.068;24.752;2023-09-18T01:23:59;99361.06;;;19.44;74.50
70343;BME280;57767;42.068;24.752;2023-09-18T01:25:01;99362.44;;;19.46;74.50
70343;BME280;57767;42.068;24.752;2023-09-18T01:26:04;99353.41;;;19.52;73.89
70343;BME280;57767;42.068;24.752;2023-09-18T01:27:09;99363.06;;;19.53;73.89
70343;BME280;57767;42.068;24.752;2023-09-18T01:28:11;99357.47;;;19.55;73.82
70343;BME280;57767;42.068;24.752;2023-09-18T01:29:13;99361.00;;;19.60;73.54
70343;BME280;57767;42.068;24.752;2023-09-18T01:30:15;99347.06;;;19.58;73.19
70343;BME280;57767;42.068;24.752;2023-09-18T01:31:17;99364.34;;;19.73;73.01
70343;BME280;57767;42.068;24.752;2023-09-18T01:32:19;99364.59;;;19.76;72.59
70343;BME280;57767;42.068;24.752;2023-09-18T01:33:27;99365.72;;;19.80;72.63
70343;BME280;57767;42.068;24.752;2023-09-18T01:34:38;99357.44;;;19.82;72.86
70343;BME280;57767;42.068;24.752;2023-09-18T01:35:45;99353.94;;;19.81;72.87
70343;BME280;57767;42.068;24.752;2023-09-18T01:36:47;99351.50;;;19.80;72.84
70343;BME280;57767;42.068;24.752;2023-09-18T01:37:51;99347.75;;;19.76;72.95
70343;BME280;57767;42.068;24.752;2023-09-18T01:38:53;99350.97;;;19.78;72.84
70343;BME280;57767;42.068;24.752;2023-09-18T01:39:56;99348.53;;;19.76;73.03
70343;BME280;57767;42.068;24.752;2023-09-18T01:41:01;99359.78;;;19.73;72.79
70343;BME280;57767;42.068;24.752;2023-09-18T01:42:04;99353.06;;;19.71;72.82
70343;BME280;57767;42.068;24.752;2023-09-18T01:43:07;99358.34;;;19.65;73.00
70343;BME280;57767;42.068;24.752;2023-09-18T01:44:08;99350.88;;;19.67;73.13
70343;BME280;57767;42.068;24.752;2023-09-18T01:45:10;99355.44;;;19.67;73.06
70343;BME280;57767;42.068;24.752;2023-09-18T01:46:13;99351.44;;;19.70;72.91
70343;BME280;57767;42.068;24.752;2023-09-18T01:47:19;99355.72;;;19.71;73.01
70343;BME280;57767;42.068;24.752;2023-09-18T01:48:22;99342.25;;;19.60;73.10
70343;BME280;57767;42.068;24.752;2023-09-18T01:49:35;99355.50;;;19.77;72.85
70343;BME280;57767;42.068;24.752;2023-09-18T01:50:38;99346.13;;;19.75;72.31
70343;BME280;57767;42.068;24.752;2023-09-18T01:51:41;99348.53;;;19.76;72.37
70343;BME280;57767;42.068;24.752;2023-09-18T01:52:43;99353.63;;;19.78;72.50
70343;BME280;57767;42.068;24.752;2023-09-18T01:53:45;99346.75;;;19.87;71.94
70343;BME280;57767;42.068;24.752;2023-09-18T01:54:47;99347.81;;;19.86;71.95
70343;BME280;57767;42.068;24.752;2023-09-18T01:55:49;99348.91;;;19.90;71.92
70343;BME280;57767;42.068;24.752;2023-09-18T01:56:51;99351.59;;;19.90;71.77
70343;BME280;57767;42.068;24.752;2023-09-18T01:57:53;99355.94;;;19.96;71.85
70343;BME280;57767;42.068;24.752;2023-09-18T01:58:55;99353.00;;;19.97;71.44
70343;BME280;57767;42.068;24.752;2023-09-18T01:59:57;99347.41;;;19.99;71.35
70343;BME280;57767;42.068;24.752;2023-09-18T02:01:02;99352.53;;;20.06;70.90
70343;BME280;57767;42.068;24.752;2023-09-18T02:02:05;99352.81;;;20.09;70.98
70343;BME280;57767;42.068;24.752;2023-09-18T02:03:10;99351.25;;;20.13;70.85
70343;BME280;57767;42.068;24.752;2023-09-18T02:04:32;99357.13;;;20.15;70.30
70343;BME280;57767;42.068;24.752;2023-09-18T02:05:54;99353.94;;;20.18;70.29
70343;BME280;57767;42.068;24.752;2023-09-18T02:06:57;99346.97;;;20.17;69.96
70343;BME280;57767;42.068;24.752;2023-09-18T02:07:59;99349.94;;;20.21;69.79
70343;BME280;57767;42.068;24.752;2023-09-18T02:09:02;99362.59;;;20.25;69.88
70343;BME280;57767;42.068;24.752;2023-09-18T02:10:05;99360.44;;;20.27;69.84
70343;BME280;57767;42.068;24.752;2023-09-18T02:11:08;99362.84;;;20.29;69.75
70343;BME280;57767;42.068;24.752;2023-09-18T02:12:10;99358.84;;;20.31;70.18
70343;BME280;57767;42.068;24.752;2023-09-18T02:13:13;99359.38;;;20.28;70.19
70343;BME280;57767;42.068;24.752;2023-09-18T02:14:15;99343.78;;;20.20;70.19
70343;BME280;57767;42.068;24.752;2023-09-18T02:15:17;99370.13;;;20.33;69.96
70343;BME280;57767;42.068;24.752;2023-09-18T02:16:18;99359.66;;;20.32;69.92
70343;BME280;57767;42.068;24.752;2023-09-18T02:17:24;99360.22;;;20.34;69.58
70343;BME280;57767;42.068;24.752;2023-09-18T02:18:26;99356.47;;;20.35;69.59
70343;BME280;57767;42.068;24.752;2023-09-18T02:19:28;99355.94;;;20.33;69.86
70343;BME280;57767;42.068;24.752;2023-09-18T02:20:29;99350.50;;;20.28;69.52
70343;BME280;57767;42.068;24.752;2023-09-18T02:21:31;99361.03;;;20.34;69.69
70343;BME280;57767;42.068;24.752;2023-09-18T02:22:33;99354.06;;;20.33;69.64
70343;BME280;57767;42.068;24.752;2023-09-18T02:23:35;99349.28;;;20.35;69.60
70343;BME280;57767;42.068;24.752;2023-09-18T02:24:37;99346.50;;;20.30;69.59
70343;BME280;57767;42.068;24.752;2023-09-18T02:25:39;99343.31;;;20.33;69.31
70343;BME280;57767;42.068;24.752;2023-09-18T02:26:42;99358.38;;;20.39;69.35
70343;BME280;57767;42.068;24.752;2023-09-18T02:27:43;99340.63;;;20.33;69.41
70343;BME280;57767;42.068;24.752;2023-09-18T02:28:45;99354.94;;;20.39;69.64
70343;BME280;57767;42.068;24.752;2023-09-18T02:29:47;99351.69;;;20.37;70.03
70343;BME280;57767;42.068;24.752;2023-09-18T02:30:51;99357.00;;;20.32;69.99
70343;BME280;57767;42.068;24.752;2023-09-18T02:31:53;99349.28;;;20.35;69.52
70343;BME280;57767;42.068;24.752;2023-09-18T02:32:55;99347.41;;;20.36;69.88
70343;BME280;57767;42.068;24.752;2023-09-18T02:33:57;99358.38;;;20.39;69.54
70343;BME280;57767;42.068;24.752;2023-09-18T02:34:59;99361.38;;;20.43;69.32
70343;BME280;57767;42.068;24.752;2023-09-18T02:36:01;99362.19;;;20.44;69.38
70343;BME280;57767;42.068;24.752;2023-09-18T02:37:03;99364.59;;;20.45;69.80
70343;BME280;57767;42.068;24.752;2023-09-18T02:38:05;99359.00;;;20.47;70.25
70343;BME280;57767;42.068;24.752;2023-09-18T02:39:07;99367.03;;;20.47;70.23
70343;BME280;57767;42.068;24.752;2023-09-18T02:40:09;99358.44;;;20.45;69.97
70343;BME280;57767;42.068;24.752;2023-09-18T02:41:11;99359.50;;;20.44;69.98
70343;BME280;57767;42.068;24.752;2023-09-18T02:42:13;99359.75;;;20.42;69.96
70343;BME280;57767;42.068;24.752;2023-09-18T02:43:15;99357.06;;;20.42;70.04
70343;BME280;57767;42.068;24.752;2023-09-18T02:44:16;99371.03;;;20.44;70.11
70343;BME280;57767;42.068;24.752;2023-09-18T02:45:18;99370.22;;;20.44;69.91
70343;BME280;57767;42.068;24.752;2023-09-18T02:46:20;99372.66;;;20.45;69.74
70343;BME280;57767;42.068;24.752;2023-09-18T02:47:22;99362.97;;;20.39;69.53
70343;BME280;57767;42.068;24.752;2023-09-18T02:48:24;99373.47;;;20.46;69.81
70343;BME280;57767;42.068;24.752;2023-09-18T02:49:26;99368.59;;;20.43;70.07
70343;BME280;57767;42.068;24.752;2023-09-18T02:50:28;99371.03;;;20.44;70.33
70343;BME280;57767;42.068;24.752;2023-09-18T02:51:30;99366.97;;;20.36;69.93
70343;BME280;57767;42.068;24.752;2023-09-18T02:52:33;99366.41;;;20.34;70.25
70343;BME280;57767;42.068;24.752;2023-09-18T02:53:35;99373.88;;;20.32;70.32
70343;BME280;57767;42.068;24.752;2023-09-18T02:54:36;99369.03;;;20.29;70.52
70343;BME280;57767;42.068;24.752;2023-09-18T02:55:38;99366.09;;;20.31;70.24
70343;BME280;57767;42.068;24.752;2023-09-18T02:56:40;99372.56;;;20.35;69.98
70343;BME280;57767;42.068;24.752;2023-09-18T02:57:42;99369.34;;;20.33;69.73
70343;BME280;57767;42.068;24.752;2023-09-18T02:58:44;99374.78;;;20.38;70.08
70343;BME280;57767;42.068;24.752;2023-09-18T02:59:45;99377.44;;;20.38;70.08
70343;BME280;57767;42.068;24.752;2023-09-18T03:00:49;99376.31;;;20.34;69.74
70343;BME280;57767;42.068;24.752;2023-09-18T03:01:51;99370.13;;;20.33;69.79
70343;BME280;57767;42.068;24.752;2023-09-18T03:02:53;99371.75;;;20.34;70.30
70343;BME280;57767;42.068;24.752;2023-09-18T03:03:55;99382.53;;;20.39;70.56
70343;BME280;57767;42.068;24.752;2023-09-18T03:04:56;99375.56;;;20.38;70.60
70343;BME280;57767;42.068;24.752;2023-09-18T03:06:03;99379.59;;;20.41;70.72
70343;BME280;57767;42.068;24.752;2023-09-18T03:07:05;99376.91;;;20.41;70.60
70343;BME280;57767;42.068;24.752;2023-09-18T03:08:08;99377.72;;;20.42;70.27
70343;BME280;57767;42.068;24.752;2023-09-18T03:09:10;99381.22;;;20.42;70.54
70343;BME280;57767;42.068;24.752;2023-09-18T03:10:12;99377.72;;;20.42;70.49
70343;BME280;57767;42.068;24.752;2023-09-18T03:11:17;99375.03;;;20.42;70.19
70343;BME280;57767;42.068;24.752;2023-09-18T03:12:19;99378.78;;;20.41;70.13
70343;BME280;57767;42.068;24.752;2023-09-18T03:13:21;99379.84;;;20.39;70.11
70343;BME280;57767;42.068;24.752;2023-09-18T03:14:23;99378.25;;;20.38;70.31
70343;BME280;57767;42.068;24.752;2023-09-18T03:15:25;99381.47;;;20.41;70.11
70343;BME280;57767;42.068;24.752;2023-09-18T03:16:27;99381.47;;;20.41;70.01
70343;BME280;57767;42.068;24.752;2023-09-18T03:17:28;99379.34;;;20.43;70.37
70343;BME280;57767;42.068;24.752;2023-09-18T03:18:30;99383.09;;;20.42;70.22
70343;BME280;57767;42.068;24.752;2023-09-18T03:19:32;99379.81;;;20.34;69.87
70343;BME280;57767;42.068;24.752;2023-09-18T03:20:34;99373.06;;;20.32;70.02
70343;BME280;57767;42.068;24.752;2023-09-18T03:21:36;99374.16;;;20.31;70.39
70343;BME280;57767;42.068;24.752;2023-09-18T03:22:38;99385.44;;;20.33;70.90
70343;BME280;57767;42.068;24.752;2023-09-18T03:23:39;99381.38;;;20.30;71.13
70343;BME280;57767;42.068;24.752;2023-09-18T03:24:41;99380.06;;;20.33;70.92
70343;BME280;57767;42.068;24.752;2023-09-18T03:25:44;99379.25;;;20.32;71.05
70343;BME280;57767;42.068;24.752;2023-09-18T03:26:52;99390.22;;;20.31;71.32
70343;BME280;57767;42.068;24.752;2023-09-18T03:27:55;99383.50;;;20.28;70.75
70343;BME280;57767;42.068;24.752;2023-09-18T03:28:57;99381.31;;;20.20;70.92
70343;BME280;57767;42.068;24.752;2023-09-18T03:29:59;99382.38;;;20.19;71.05
70343;BME280;57767;42.068;24.752;2023-09-18T03:31:01;99384.00;;;20.20;70.80
70343;BME280;57767;42.068;24.752;2023-09-18T03:32:03;99381.06;;;20.22;70.94
70343;BME280;57767;42.068;24.752;2023-09-18T03:33:04;99388.59;;;20.25;71.52
70343;BME280;57767;42.068;24.752;2023-09-18T03:34:06;99375.16;;;20.20;71.24
70343;BME280;57767;42.068;24.752;2023-09-18T03:35:09;99383.44;;;20.18;71.59
70343;BME280;57767;42.068;24.752;2023-09-18T03:36:21;99381.00;;;20.17;71.36
70343;BME280;57767;42.068;24.752;2023-09-18T03:37:24;99380.19;;;20.16;71.77
70343;BME280;57767;42.068;24.752;2023-09-18T03:38:26;99382.63;;;20.18;71.66
70343;BME280;57767;42.068;24.752;2023-09-18T03:39:28;99378.56;;;20.10;71.69
70343;BME280;57767;42.068;24.752;2023-09-18T03:40:30;99382.31;;;20.09;72.09
70343;BME280;57767;42.068;24.752;2023-09-18T03:41:32;99376.66;;;20.06;72.03
70343;BME280;57767;42.068;24.752;2023-09-18T03:42:36;99389.22;;;20.00;72.46
70343;BME280;57767;42.068;24.752;2023-09-18T03:43:37;99380.56;;;19.93;72.87
70343;BME280;57767;42.068;24.752;2023-09-18T03:44:39;99369.84;;;19.93;72.74
70343;BME280;57767;42.068;24.752;2023-09-18T03:45:41;99381.03;;;19.85;73.17
70343;BME280;57767;42.068;24.752;2023-09-18T03:46:43;99375.84;;;19.73;73.43
70343;BME280;57767;42.068;24.752;2023-09-18T03:47:45;99381.41;;;19.66;74.03
70343;BME280;57767;42.068;24.752;2023-09-18T03:48:47;99382.53;;;19.71;74.12
70343;BME280;57767;42.068;24.752;2023-09-18T03:49:49;99378.28;;;19.75;73.77
70343;BME280;57767;42.068;24.752;2023-09-18T03:50:51;99386.59;;;19.78;73.54
70343;BME280;57767;42.068;24.752;2023-09-18T03:51:53;99375.94;;;19.83;73.16
70343;BME280;57767;42.068;24.752;2023-09-18T03:52:55;99379.72;;;19.87;73.34
70343;BME280;57767;42.068;24.752;2023-09-18T03:53:57;99381.34;;;19.88;73.06
70343;BME280;57767;42.068;24.752;2023-09-18T03:54:59;99378.38;;;19.90;73.39
70343;BME280;57767;42.068;24.752;2023-09-18T03:56:01;99385.13;;;19.92;73.30
70343;BME280;57767;42.068;24.752;2023-09-18T03:57:03;99375.72;;;19.90;72.91
70343;BME280;57767;42.068;24.752;2023-09-18T03:58:05;99382.75;;;19.96;72.67
70343;BME280;57767;42.068;24.752;2023-09-18T03:59:07;99384.09;;;19.98;72.52
70343;BME280;57767;42.068;24.752;2023-09-18T04:00:10;99380.63;;;19.98;72.52
70343;BME280;57767;42.068;24.752;2023-09-18T04:01:12;99380.06;;;19.96;72.80
70343;BME280;57767;42.068;24.752;2023-09-18T04:02:14;99384.38;;;19.97;72.95
70343;BME280;57767;42.068;24.752;2023-09-18T04:03:16;99376.53;;;19.90;73.51
70343;BME280;57767;42.068;24.752;2023-09-18T04:04:18;99377.06;;;19.92;73.40
70343;BME280;57767;42.068;24.752;2023-09-18T04:05:20;99384.06;;;19.93;73.51
70343;BME280;57767;42.068;24.752;2023-09-18T04:06:22;99383.81;;;19.95;73.43
70343;BME280;57767;42.068;24.752;2023-09-18T04:07:25;99386.75;;;19.93;73.23
70343;BME280;57767;42.068;24.752;2023-09-18T04:08:27;99387.03;;;19.97;73.31
70343;BME280;57767;42.068;24.752;2023-09-18T04:09:29;99384.09;;;19.98;73.46
70343;BME280;57767;42.068;24.752;2023-09-18T04:10:31;99380.81;;;19.91;73.45
70343;BME280;57767;42.068;24.752;2023-09-18T04:11:33;99385.94;;;19.93;73.44
70343;BME280;57767;42.068;24.752;2023-09-18T04:12:35;99376.56;;;19.95;73.35
70343;BME280;57767;42.068;24.752;2023-09-18T04:13:36;99387.28;;;19.95;72.93
70343;BME280;57767;42.068;24.752;2023-09-18T04:14:39;99396.16;;;19.96;73.18
70343;BME280;57767;42.068;24.752;2023-09-18T04:15:41;99390.03;;;20.00;73.33
70343;BME280;57767;42.068;24.752;2023-09-18T04:16:43;99382.78;;;20.01;73.35
70343;BME280;57767;42.068;24.752;2023-09-18T04:17:46;99385.97;;;19.98;73.08
70343;BME280;57767;42.068;24.752;2023-09-18T04:18:48;99389.00;;;20.07;72.60
70343;BME280;57767;42.068;24.752;2023-09-18T04:19:50;99389.53;;;20.09;72.95
70343;BME280;57767;42.068;24.752;2023-09-18T04:20:52;99394.66;;;20.10;73.11
70343;BME280;57767;42.068;24.752;2023-09-18T04:21:54;99391.72;;;20.12;72.99
70343;BME280;57767;42.068;24.752;2023-09-18T04:23:21;99396.53;;;20.15;71.95
70343;BME280;57767;42.068;24.752;2023-09-18T04:24:24;99390.38;;;20.14;71.69
70343;BME280;57767;42.068;24.752;2023-09-18T04:25:26;99382.88;;;20.11;71.74
70343;BME280;57767;42.068;24.752;2023-09-18T04:26:28;99391.47;;;20.18;71.58
70343;BME280;57767;42.068;24.752;2023-09-18T04:27:34;99386.94;;;20.19;71.52
70343;BME280;57767;42.068;24.752;2023-09-18T04:28:36;99388.81;;;20.18;71.34
70343;BME280;57767;42.068;24.752;2023-09-18T04:29:38;99392.59;;;20.22;71.05
70343;BME280;57767;42.068;24.752;2023-09-18T04:30:40;99399.03;;;20.21;71.19
70343;BME280;57767;42.068;24.752;2023-09-18T04:31:41;99386.97;;;20.24;71.46
70343;BME280;57767;42.068;24.752;2023-09-18T04:32:43;99391.78;;;20.22;71.16
70343;BME280;57767;42.068;24.752;2023-09-18T04:33:46;99392.59;;;20.22;71.02
70343;BME280;57767;42.068;24.752;2023-09-18T04:34:48;99395.56;;;20.26;71.18
70343;BME280;57767;42.068;24.752;2023-09-18T04:35:49;99384.84;;;20.26;71.12
70343;BME280;57767;42.068;24.752;2023-09-18T04:36:51;99392.63;;;20.27;71.16
70343;BME280;57767;42.068;24.752;2023-09-18T04:37:55;99390.22;;;20.26;70.78
70343;BME280;57767;42.068;24.752;2023-09-18T04:38:58;99386.19;;;20.28;70.79
70343;BME280;57767;42.068;24.752;2023-09-18T04:40:00;99379.19;;;20.27;71.10
70343;BME280;57767;42.068;24.752;2023-09-18T04:41:01;99379.19;;;20.27;71.06
70343;BME280;57767;42.068;24.752;2023-09-18T04:42:03;99390.50;;;20.29;71.26
70343;BME280;57767;42.068;24.752;2023-09-18T04:43:05;99387.56;;;20.31;71.15
70343;BME280;57767;42.068;24.752;2023-09-18T04:44:07;99383.81;;;20.32;71.42
70343;BME280;57767;42.068;24.752;2023-09-18T04:45:10;99388.66;;;20.35;71.72
70343;BME280;57767;42.068;24.752;2023-09-18T04:46:12;99395.41;;;20.37;71.55
70343;BME280;57767;42.068;24.752;2023-09-18T04:47:14;99391.66;;;20.38;70.90
70343;BME280;57767;42.068;24.752;2023-09-18T04:48:16;99395.94;;;20.39;70.63
70343;BME280;57767;42.068;24.752;2023-09-18T04:49:18;99391.38;;;20.40;70.15
70343;BME280;57767;42.068;24.752;2023-09-18T04:50:20;99391.13;;;20.36;70.33
70343;BME280;57767;42.068;24.752;2023-09-18T04:51:22;99387.38;;;20.37;70.23
70343;BME280;57767;42.068;24.752;2023-09-18T04:52:24;99395.41;;;20.37;70.11
70343;BME280;57767;42.068;24.752;2023-09-18T04:53:29;99389.16;;;20.32;70.26
70343;BME280;57767;42.068;24.752;2023-09-18T04:54:31;99394.53;;;20.32;70.58
70343;BME280;57767;42.068;24.752;2023-09-18T04:55:33;99393.47;;;20.33;70.66
70343;BME280;57767;42.068;24.752;2023-09-18T04:56:35;99395.09;;;20.34;71.05
70343;BME280;57767;42.068;24.752;2023-09-18T04:57:38;99390.53;;;20.34;71.11
70343;BME280;57767;42.068;24.752;2023-09-18T04:58:40;99388.44;;;20.36;71.00
70343;BME280;57767;42.068;24.752;2023-09-18T04:59:42;99390.53;;;20.34;70.86
70343;BME280;57767;42.068;24.752;2023-09-18T05:00:44;99385.75;;;20.36;70.87
70343;BME280;57767;42.068;24.752;2023-09-18T05:01:46;99392.47;;;20.39;71.56
70343;BME280;57767;42.068;24.752;2023-09-18T05:02:48;99390.63;;;20.45;71.15
70343;BME280;57767;42.068;24.752;2023-09-18T05:03:50;99394.41;;;20.49;72.05
70343;BME280;57767;42.068;24.752;2023-09-18T05:04:53;99394.16;;;20.55;73.72
70343;BME280;57767;42.068;24.752;2023-09-18T05:05:57;99387.53;;;20.63;73.73
70343;BME280;57767;42.068;24.752;2023-09-18T05:06:59;99388.09;;;20.70;72.53
70343;BME280;57767;42.068;24.752;2023-09-18T05:08:06;99391.88;;;20.74;71.14
70343;BME280;57767;42.068;24.752;2023-09-18T05:09:09;99390.25;;;20.73;70.22
70343;BME280;57767;42.068;24.752;2023-09-18T05:10:11;99391.88;;;20.74;70.21
70343;BME280;57767;42.068;24.752;2023-09-18T05:11:12;99392.69;;;20.74;70.51
70343;BME280;57767;42.068;24.752;2023-09-18T05:12:15;99392.69;;;20.74;69.36
70343;BME280;57767;42.068;24.752;2023-09-18T05:13:17;99390.00;;;20.80;69.22
70343;BME280;57767;42.068;24.752;2023-09-18T05:14:19;99393.28;;;20.92;72.03
70343;BME280;57767;42.068;24.752;2023-09-18T05:15:21;99391.97;;;21.04;72.91
70343;BME280;57767;42.068;24.752;2023-09-18T05:16:22;99395.25;;;21.12;71.96
70343;BME280;57767;42.068;24.752;2023-09-18T05:17:40;99390.47;;;21.24;69.42
70343;BME280;57767;42.068;24.752;2023-09-18T05:18:43;99395.34;;;21.37;68.01
70343;BME280;57767;42.068;24.752;2023-09-18T05:19:44;99389.69;;;21.33;67.18
70343;BME280;57767;42.068;24.752;2023-09-18T05:20:46;99392.66;;;21.37;66.44
70343;BME280;57767;42.068;24.752;2023-09-18T05:21:48;99389.72;;;21.38;66.67
70343;BME280;57767;42.068;24.752;2023-09-18T05:22:51;99400.75;;;21.47;66.52
70343;BME280;57767;42.068;24.752;2023-09-18T05:23:56;99393.22;;;21.49;66.56
70343;BME280;57767;42.068;24.752;2023-09-18T05:24:58;99391.34;;;21.55;67.32
70343;BME280;57767;42.068;24.752;2023-09-18T05:25:59;99395.94;;;21.64;67.27
70343;BME280;57767;42.068;24.752;2023-09-18T05:27:02;99400.53;;;21.74;68.69
70343;BME280;57767;42.068;24.752;2023-09-18T05:28:05;99380.88;;;21.78;67.00
70343;BME280;57767;42.068;24.752;2023-09-18T05:29:07;99384.41;;;21.84;65.74
70343;BME280;57767;42.068;24.752;2023-09-18T05:30:17;99392.75;;;21.98;65.56
70343;BME280;57767;42.068;24.752;2023-09-18T05:31:19;99384.41;;;22.04;64.57